Main page
METAR-TAF:

METAR-TAF

Airports :

Ataq Airport

Ataq, Yemen

latitude: 14-31N, longitude: 046-51E, elevation: 1067 m

Current weather observation

The report was made 49 minutes ago, at 11:00 UTC
Wind 7 kt from the North/Northwest
Temperature 34°C
Humidity 15%
Pressure 1014 hPa
Visibility 10 km or more
Few clouds at a height of 3000 ft

METAR: OYAT 201100Z 33007KT 9999 FEW030 34/04 Q1014

Time: 14:49 (11:49 UTC)


TAF: missing

Weather observations and forecasts of more than 4000 airports (METAR and TAF reports).

The available stations are represented by yellow and red dots on the map.

Hover mouse over dot to see the name of the station.

Then click to see weather observations and forecasts.

To change the map : click on the green buttons with a black cross to zoom in, on the green button with a dash to zoom out, or on the green arrows for adjacent maps.


METAR-TAF: